Latest Weather Observations for Wangaratta

IDV60801

Issued at 11:35 am EDT Thursday 23 October 2014 (issued every 30 minutes, with the page automatically refreshed every 10 minutes)

About weather observations | Map of weather stations | Latest weather observations for VIC | Other Formats
Station Details ID: 082138 Name: WANGARATTA AERO Lat: -36.42 Lon: 146.31 Height: 152.6 m
Data from the previous 72 hours. | See also: Recent months at Wangaratta
Date/Time
EDT
Temp
°C
App
Temp
°C
Dew
Point
Rel
Hum
%
Delta-T
°C
Wind Press
QNH
hPa
Press
MSL
hPa
Rain
since 9 am
mm
Dir
 
Spd
km/h
Gust
km/h
Spd
kts
Gust
kts
23/11:30am 28.0 27.8 13.5 41 8.6 NNE 7 13 4 7 1016.3 1016.3 0.0
23/11:00am 27.0 25.2 13.4 43 8.1 NNE 15 19 8 10 1016.8 1016.8 0.0
23/10:30am 26.1 26.1 13.6 46 7.4 N 6 9 3 5 1017.1 1017.1 0.0
23/10:00am 24.6 24.8 13.2 49 6.7 E 4 9 2 5 1017.1 1017.1 0.0
23/09:30am 22.9 22.3 13.4 55 5.5 SE 9 11 5 6 1017.1 1017.1 0.0
23/09:00am 21.6 21.7 14.0 62 4.4 SSE 6 9 3 5 1017.2 1017.2 0.0
23/08:30am 19.3 19.1 13.7 70 3.2 SSW 7 9 4 5 1017.3 1017.3 0.0
23/08:00am 17.4 17.6 14.1 81 1.9 SSW 6 7 3 4 1017.1 1017.1 0.0
23/07:30am 15.1 15.4 14.9 99 0.1 SSE 7 9 4 5 1016.9 1016.9 0.0
23/07:00am 12.6 13.4 12.6 100 0.0 CALM 0 4 0 2 1016.9 1016.9 0.0
23/06:30am 12.2 11.6 12.2 100 0.0 SSW 7 9 4 5 1016.8 1016.8 0.0
23/06:00am 12.3 11.8 12.1 99 0.1 SSW 6 9 3 5 1016.4 1016.4 0.0
23/05:30am 13.1 12.7 13.1 100 0.0 SW 7 9 4 5 1016.2 1016.1 0.0
23/05:00am 13.0 12.2 12.8 99 0.1 SSW 9 11 5 6 1015.9 1015.8 0.0
23/04:30am 13.1 12.3 12.8 98 0.2 WSW 9 13 5 7 1016.0 1015.9 0.0
23/04:00am 15.1 14.6 13.8 92 0.7 S 9 11 5 6 1015.9 1015.8 0.0
23/03:30am 14.4 13.8 12.3 87 1.1 SSE 7 9 4 5 1016.1 1016.0 0.0
23/03:00am 16.0 16.0 13.5 85 1.4 WSW 6 9 3 5 1016.5 1016.5 0.0
23/02:30am 17.1 15.8 13.6 80 2.0 S 13 17 7 9 1016.9 1016.9 0.0
23/02:00am 18.5 18.1 14.0 75 2.6 S 9 11 5 6 1016.4 1016.4 0.0
23/01:30am 20.1 17.5 13.8 67 3.6 ENE 20 26 11 14 1016.0 1015.9 0.0
23/01:00am 18.9 18.2 14.2 74 2.7 ENE 11 11 6 6 1017.5 1017.5 0.0
23/12:30am 20.0 20.9 14.1 69 3.4 WSW 2 7 1 4 1018.0 1018.0 0.0
23/12:00am 19.9 18.7 14.0 69 3.4 SW 13 17 7 9 1018.2 1018.2 0.0
 
Date/Time
EDT
Temp
°C
App
Temp
°C
Dew
Point
Rel
Hum
%
Delta-T
°C
Wind Press
QNH
hPa
Press
MSL
hPa
Rain
since 9 am
mm
Dir
 
Spd
km/h
Gust
km/h
Spd
kts
Gust
kts
22/11:30pm 18.0 14.9 16.5 91 0.9 WSW 28 39 15 21 1018.6 1018.5 0.0
22/11:00pm 16.8 16.9 14.4 86 1.4 SE 7 9 4 5 1017.1 1017.1 0.0
22/10:30pm 18.0 18.5 14.9 82 1.8 SSW 6 7 3 4 1017.6 1017.6 0.0
22/10:00pm 18.8 18.4 15.3 80 2.1 SSE 11 13 6 7 1017.3 1017.3 0.0
22/09:30pm 18.2 18.4 14.7 80 2.0 SSE 7 9 4 5 1017.5 1017.5 0.0
22/09:00pm 18.5 20.0 14.6 78 2.3 CALM 0 0 0 0 1017.5 1017.5 0.0
22/08:30pm 18.7 20.0 14.2 75 2.6 CALM 0 0 0 0 1017.2 1017.2 0.0
22/08:00pm 21.5 23.6 16.2 72 3.2 CALM 0 0 0 0 1016.7 1016.7 0.0
22/07:30pm 24.3 24.2 13.2 50 6.5 E 6 7 3 4 1016.6 1016.6 0.0
22/07:00pm 26.4 26.2 13.5 45 7.6 E 7 9 4 5 1016.5 1016.5 0.0
22/06:30pm 28.0 27.1 11.5 35 9.5 E 7 11 4 6 1016.5 1016.5 0.0
22/06:00pm 28.3 26.9 12.2 37 9.4 E 11 15 6 8 1016.4 1016.4 0.0
22/05:30pm 28.7 27.6 10.8 33 10.3 NE 7 11 4 6 1016.5 1016.5 0.0
22/05:00pm 28.4 26.9 10.6 33 10.1 NE 9 15 5 8 1016.8 1016.8 0.0
22/04:30pm 28.1 26.1 10.3 33 10.1 NNE 11 17 6 9 1017.2 1017.2 0.0
22/04:00pm 27.9 26.0 10.6 34 9.8 NNE 11 19 6 10 1017.6 1017.6 0.0
22/03:30pm 27.7 25.3 11.3 36 9.4 NNE 15 22 8 12 1017.9 1017.9 0.0
22/03:00pm 27.3 25.0 11.7 37 9.0 N 15 24 8 13 1018.2 1018.2 0.0
22/02:30pm 27.1 24.3 11.2 37 9.1 N 17 26 9 14 1018.8 1018.7 0.0
22/02:00pm 26.3 23.8 11.2 38 8.6 NNE 15 24 8 13 1019.4 1019.3 0.0
22/01:30pm 26.3 23.8 12.4 42 8.1 NNE 17 24 9 13 1019.9 1019.8 0.0
22/01:00pm 25.6 22.9 11.7 42 7.9 N 17 26 9 14 1020.4 1020.3 0.0
22/12:30pm 25.9 23.3 12.0 42 8.0 N 17 24 9 13 1020.7 1020.6 0.0
22/12:00pm 24.7 22.4 10.6 41 7.9 NE 13 20 7 11 1021.2 1021.1 0.0
22/11:30am 23.6 22.5 12.0 48 6.6 ENE 9 13 5 7 1021.7 1021.6 0.0
22/11:00am 22.2 21.7 12.5 54 5.5 ENE 7 13 4 7 1022.3 1022.3 0.0
22/10:30am 20.9 19.3 11.5 55 5.2 NE 11 15 6 8 1022.7 1022.7 0.0
22/10:00am 20.0 19.4 11.7 59 4.6 NE 6 11 3 6 1023.1 1023.1 0.0
22/09:30am 18.3 17.7 12.3 68 3.4 E 7 11 4 6 1023.3 1023.3 0.0
22/09:00am 16.0 15.8 12.9 82 1.7 ESE 6 9 3 5 1023.5 1023.5 0.0
22/08:30am 13.5 14.2 13.5 100 0.0 S 2 7 1 4 1023.5 1023.5 0.0
22/08:00am 10.9 11.2 10.9 100 0.0 CALM 0 0 0 0 1023.7 1023.7 0.0
22/07:30am 8.7 8.4 8.7 100 0.0 CALM 0 0 0 0 1023.6 1023.6 0.0
22/07:00am 7.8 7.3 7.8 100 0.0 CALM 0 0 0 0 1023.5 1023.5 0.0
22/06:30am 7.8 7.3 7.8 100 0.0 CALM 0 0 0 0 1023.3 1023.3 0.0
22/06:00am 7.4 6.8 7.4 100 0.0 CALM 0 0 0 0 1023.0 1023.0 0.0
22/05:30am 7.8 6.9 7.8 100 0.0 SE 2 6 1 3 1022.6 1022.6 0.0
22/05:00am 8.0 6.4 8.0 100 0.0 S 6 7 3 4 1022.3 1022.3 0.0
22/04:30am 7.8 6.0 7.8 100 0.0 SW 7 9 4 5 1022.2 1022.2 0.0
22/04:00am 7.9 7.4 7.9 100 0.0 CALM 0 0 0 0 1022.2 1022.2 0.0
22/03:30am 8.5 8.2 8.5 100 0.0 CALM 0 0 0 0 1022.2 1022.2 0.0
22/03:00am 9.2 9.0 9.2 100 0.0 CALM 0 0 0 0 1022.5 1022.5 0.0
22/02:30am 9.7 9.7 9.7 100 0.0 CALM 0 0 0 0 1022.7 1022.7 0.0
22/02:00am 10.0 10.1 10.0 100 0.0 CALM 0 0 0 0 1023.0 1023.0 0.0
22/01:30am 10.2 10.3 10.2 100 0.0 CALM 0 0 0 0 1023.4 1023.4 0.0
22/01:00am 10.7 10.9 10.5 99 0.1 CALM 0 0 0 0 1023.8 1023.8 0.0
22/12:30am 10.9 11.1 10.4 97 0.3 CALM 0 0 0 0 1024.1 1024.1 0.0
22/12:00am 12.0 12.4 11.1 94 0.5 CALM 0 0 0 0 1024.0 1024.0 0.0
 
Date/Time
EDT
Temp
°C
App
Temp
°C
Dew
Point
Rel
Hum
%
Delta-T
°C
Wind Press
QNH
hPa
Press
MSL
hPa
Rain
since 9 am
mm
Dir
 
Spd
km/h
Gust
km/h
Spd
kts
Gust
kts
21/11:30pm 12.2 11.4 11.1 93 0.6 SE 6 7 3 4 1024.3 1024.3 0.0
21/11:00pm 12.0 12.2 10.6 91 0.7 CALM 0 0 0 0 1024.3 1024.3 0.0
21/10:30pm 12.4 11.6 11.0 91 0.7 W 6 7 3 4 1024.3 1024.3 0.0
21/10:00pm 14.1 14.7 11.8 86 1.2 CALM 0 0 0 0 1024.2 1024.2 0.0
21/09:30pm 13.9 14.3 11.2 84 1.4 CALM 0 0 0 0 1024.1 1024.1 0.0
21/09:00pm 14.3 13.6 11.3 82 1.6 SW 6 7 3 4 1023.8 1023.8 0.0
21/08:30pm 16.1 16.5 11.3 73 2.6 CALM 0 0 0 0 1023.6 1023.6 0.0
21/08:00pm 18.5 17.4 10.6 60 4.3 ESE 7 7 4 4 1023.3 1023.3 0.0
21/07:30pm 21.1 20.3 11.2 53 5.5 E 6 7 3 4 1023.3 1023.3 0.0
21/07:00pm 24.3 22.7 8.7 37 8.4 NE 7 9 4 5 1023.1 1023.1 0.0
21/06:30pm 25.2 22.8 8.7 35 9.0 NE 11 15 6 8 1023.0 1023.0 0.0
21/06:00pm 25.9 23.4 8.0 32 9.6 NE 11 13 6 7 1023.2 1023.2 0.0
21/05:30pm 26.0 23.6 7.1 30 10.0 ENE 9 13 5 7 1023.2 1023.2 0.0
21/05:00pm 25.9 23.4 8.4 33 9.5 N 11 15 6 8 1023.2 1023.2 0.0
21/04:30pm 26.0 23.5 8.0 32 9.7 N 11 19 6 10 1023.4 1023.4 0.0
21/04:00pm 25.6 23.1 8.1 33 9.4 NNW 11 19 6 10 1023.7 1023.7 0.0
21/03:30pm 25.4 21.9 8.8 35 9.0 N 17 20 9 11 1024.1 1024.1 0.0
21/03:00pm 25.5 23.3 10.9 40 8.2 E 13 20 7 11 1024.5 1024.5 0.0
21/02:30pm 25.3 23.0 10.4 39 8.3 NE 13 19 7 10 1025.0 1025.0 0.0
21/02:00pm 24.6 21.8 10.1 40 8.0 NNE 15 22 8 12 1025.6 1025.5 0.0
21/01:30pm 24.5 22.0 11.1 43 7.6 NNE 15 22 8 12 1026.0 1025.9 0.0
21/01:00pm 23.6 20.9 10.3 43 7.3 N 15 24 8 13 1026.4 1026.3 0.0
21/12:30pm 23.1 20.2 9.8 43 7.3 NNE 15 22 8 12 1026.7 1026.6 0.0
21/12:00pm 22.5 20.2 10.3 46 6.7 NNE 13 22 7 12 1027.1 1027.0 0.0
21/11:30am 20.8 18.3 9.7 49 6.0 NNE 13 20 7 11 1027.6 1027.6 0.0
21/11:00am 19.7 17.7 10.1 54 5.2 NNE 11 19 6 10 1028.0 1028.0 0.0
21/10:30am 19.1 17.8 9.9 55 4.9 E 7 13 4 7 1028.2 1028.2 0.0
21/10:00am 18.1 16.7 8.9 55 4.8 NE 6 11 3 6 1028.2 1028.2 0.0
21/09:30am 16.7 15.8 9.1 61 4.0 E 4 11 2 6 1028.2 1028.2 0.0
21/09:00am 15.3 14.2 9.9 70 2.8 ESE 6 9 3 5 1028.2 1028.2 0.0
21/08:30am 12.9 11.6 9.2 78 1.9 SSE 6 7 3 4 1028.1 1028.1 0.0
21/08:00am 10.7 9.6 10.7 100 0.0 SSW 7 7 4 4 1027.9 1027.9 0.0
21/07:30am 8.4 6.9 8.4 100 0.0 SSW 6 7 3 4 1027.5 1027.5 0.0
21/07:00am 6.1 5.2 6.1 100 0.0 CALM 0 0 0 0 1027.3 1027.2 0.0
21/06:30am 5.9 4.6 5.9 100 0.0 S 2 6 1 3 1027.0 1026.9 0.0
21/06:00am 6.4 5.6 6.4 100 0.0 CALM 0 0 0 0 1026.6 1026.5 0.0
21/05:30am 6.5 5.7 6.4 99 0.0 CALM 0 0 0 0 1026.3 1026.2 0.0
21/05:00am 7.6 7.0 7.5 99 0.0 CALM 0 0 0 0 1026.3 1026.2 0.0
21/04:30am 7.2 6.1 7.1 99 0.0 E 2 7 1 4 1026.2 1026.1 0.0
21/04:00am 8.0 7.1 7.9 99 0.0 ENE 2 7 1 4 1026.1 1026.0 0.0
21/03:30am 8.5 8.0 7.9 96 0.3 CALM 0 0 0 0 1026.2 1026.1 0.0
21/03:00am 8.9 8.4 7.8 93 0.5 CALM 0 0 0 0 1026.1 1026.0 0.0
21/02:30am 9.1 8.6 8.0 93 0.5 CALM 0 6 0 3 1026.0 1025.9 0.0
21/02:00am 8.7 7.1 7.9 95 0.4 SW 6 6 3 3 1026.1 1026.0 0.0
21/01:30am 9.1 8.0 7.1 87 0.9 SSE 2 7 1 4 1026.2 1026.1 0.0
21/01:00am 11.9 9.7 7.8 76 2.0 E 9 13 5 7 1026.2 1026.1 0.0
21/12:30am 10.8 10.2 7.5 80 1.6 CALM 0 9 0 5 1026.0 1025.9 0.0
21/12:00am 12.0 11.6 8.1 77 1.9 CALM 0 0 0 0 1026.0 1025.9 0.0
 
Date/Time
EDT
Temp
°C
App
Temp
°C
Dew
Point
Rel
Hum
%
Delta-T
°C
Wind Press
QNH
hPa
Press
MSL
hPa
Rain
since 9 am
mm
Dir
 
Spd
km/h
Gust
km/h
Spd
kts
Gust
kts
20/11:30pm 13.6 9.2 8.9 73 2.4 N 22 24 12 13 1025.9 1025.8 0.0
20/11:00pm 11.7 9.6 8.2 79 1.7 SSW 9 9 5 5 1025.0 1025.0 0.0
20/10:30pm 11.8 9.8 8.5 80 1.6 SW 9 11 5 6 1024.7 1024.7 0.0
20/10:00pm 13.1 11.4 8.2 72 2.4 WSW 7 7 4 4 1024.5 1024.5 0.0
20/09:30pm 14.9 12.5 8.6 66 3.2 SSE 11 15 6 8 1024.3 1024.3 0.0
20/09:00pm 16.0 14.6 9.7 66 3.3 ESE 7 11 4 6 1023.9 1023.9 0.0
20/08:30pm 19.3 16.8 8.0 48 5.9 S 11 13 6 7 1023.2 1023.2 0.0
20/08:00pm 19.4 17.4 8.7 50 5.6 S 9 11 5 6 1022.9 1022.9 0.0
20/07:30pm 22.3 21.0 9.8 45 6.8 SSW 7 9 4 5 1022.7 1022.7 0.0
20/07:00pm 23.6 21.9 9.9 42 7.5 SSW 9 11 5 6 1022.3 1022.3 0.0
20/06:30pm 24.9 22.9 8.8 36 8.7 SSW 9 11 5 6 1022.3 1022.3 0.0
20/06:00pm 26.3 24.3 6.9 29 10.2 SW 7 11 4 6 1022.3 1022.3 0.0
20/05:30pm 26.5 24.1 8.5 32 9.8 SW 11 15 6 8 1022.2 1022.2 0.0
20/05:00pm 26.3 24.3 10.0 36 9.1 SSW 11 17 6 9 1022.1 1022.1 0.0
20/04:30pm 26.1 23.6 8.1 32 9.7 SE 11 17 6 9 1022.2 1022.2 0.0
20/04:00pm 26.3 23.7 9.2 34 9.4 S 13 20 7 11 1022.4 1022.4 0.0
20/03:30pm 26.1 23.6 8.1 32 9.7 SSE 11 17 6 9 1022.6 1022.6 0.0
20/03:00pm 26.0 23.7 8.9 34 9.3 SE 11 19 6 10 1022.9 1022.9 0.0
20/02:30pm 25.8 24.3 9.2 35 9.1 SSW 7 17 4 9 1023.4 1023.4 0.0
20/02:00pm 25.0 22.6 8.5 35 8.9 WSW 11 15 6 8 1023.8 1023.8 0.0
20/01:30pm 25.2 23.8 8.7 35 9.0 WSW 6 9 3 5 1024.1 1024.1 0.0
20/01:00pm 24.9 23.7 10.4 40 8.1 ENE 7 15 4 8 1024.3 1024.3 0.0
20/12:30pm 23.8 21.4 8.6 38 8.2 E 11 20 6 11 1024.5 1024.5 0.0
20/12:00pm 22.7 21.1 8.8 41 7.4 S 7 13 4 7 1024.8 1024.8 0.0

Other Formats:

Comma delimited format used in spreadsheet applications
http://www.bom.gov.au/fwo/IDV60801/IDV60801.94889.axf

JavaScript Object Notation format (JSON) in row-major order
http://www.bom.gov.au/fwo/IDV60801/IDV60801.94889.json